INFORMACIÓN METAR y TAF
METAR FOR LXGB
ADDS - METARS form results

(0620 UTC 17 September 2019)
Data provider http://aviationweather.gov/metar/data/
 
METAR text: LXGB 170555Z 10007KT 7000 HZ FEW010 SCT030 22/20 Q1016 RMK WHT
Conditions at: LXGB (GIBRALTAR (CIV/M, GI) observed 0555 UTC 17 September 2019
Temperature: 22.0°C (72°F)
Dewpoint: 20.0°C (68°F) [RH = 88%]
Pressure (altimeter): 30.00 inches Hg (1016.0 mb)
Winds: from the E (100 degrees) at 8 MPH (7 knots; 3.6 m/s)
Visibility: 4 miles ( 7 km)
Ceiling: at least 12,000 feet AGL
Clouds: few clouds at 1000 feet AGL
scattered clouds at 3000 feet AGL
Weather: HZ  (haze)

METAR text: LXGB 170550Z AUTO 10008KT 7000 // FEW026/// SCT180/// 22/20 Q1015
Conditions at: LXGB (GIBRALTAR (CIV/M, GI) observed 0550 UTC 17 September 2019
Temperature: 22.0°C (72°F)
Dewpoint: 20.0°C (68°F) [RH = 88%]
Pressure (altimeter): 29.97 inches Hg (1015.0 mb)
Winds: from the E (100 degrees) at 9 MPH (8 knots; 4.1 m/s)
Visibility: 4 miles ( 7 km)
Ceiling: at least 12,000 feet AGL
Clouds: few clouds at 2600 feet AGL
scattered clouds at 18000 feet AGL
Weather: no significant weather observed at this time

Forecast for: LXGB (GIBRALTAR (CIV/M, GI)
Text: TAF LXGB 170454Z 1706/1715 09008KT 9999 FEW008 SCT025
Forecast period: 0600 to 1500 UTC 17 September 2019
Forecast type: FROM: standard forecast or significant change
Winds: from the E (90 degrees) at 9 MPH (8 knots; 4.1 m/s)
Visibility: 6 or more miles 10+ km)
Ceiling: at least 12,000 feet AGL
Clouds: few clouds at 800 feet AGL
scattered clouds at 2500 feet AGL
Weather: no significant weather forecast for this period
Text: TEMPO 1706/1712 7000 HZ SCT007
Forecast period: 0600 to 1200 UTC 17 September 2019
Forecast type: TEMPORARY: The following changes expected for less than half the time period
Visibility: 4 miles (7 km)
Ceiling: at least 12,000 feet AGL
Clouds: scattered clouds at 700 feet AGL
Weather: HZ  (haze)
Text: PROB30
Forecast period: 1200 to 1500 UTC 17 September 2019
Forecast type: TEMPORARY: The following changes expected for less than half the time period
Visibility: missing
Ceiling: at least 12,000 feet AGL
Clouds: scattered clouds at 1500 feet AGL
Weather: no significant weather forecast for this period

 MAPA DE AEROPUERTO

 INFORMACIÓN DE PISTA
Pista 09 Longitud 6000 ft Ancho 150 ft
Elevación 10 ft Umbral desplazado 302 ft Rumbo de pista 88
Pista 27 Longitud 6000 ft Ancho 150 ft
Elevación 11 ft Umbral desplazado 368 ft Rumbo de pista 268

 FRECUANCIAS DEL AEROPUERTO
Tipo A/D Nombre APP Frecuencia 122.8 MHZ
Tipo OPS Nombre GIB TALKDO Frecuencia 130.4 MHZ
Tipo TWR Nombre TWR Frecuencia 131.2 MHZ

 RADIO AYUDAS DEL AEROPUERTO
Tipo TACAN Nombre Gibraltar Frecuencia 113600 KHZ



Powered by Virtual Airlines Manager [v2.6.2]